Time;durP1;ratioP1;P1;durP2;ratioP2;P2;SDS_P1;SDS_P2;PMS_P1;PMS_P2;Temp;Humidity;BMP_temperature;BMP_pressure;BME280_temperature;BME280_humidity;BME280_pressure;Samples;Min_cycle;Max_cycle;Signal;HPM_P1;HPM_P2
2021/08/17 00:01:07;;;;;;;0.40;0.40;;;14.20;87.70;;;;;;5056032;28;20020;-86
2021/08/17 00:03:32;;;;;;;1.17;0.65;;;14.10;87.80;;;;;;5073777;28;20012;-86
2021/08/17 00:06:01;;;;;;;0.32;0.32;;;14.10;87.90;;;;;;5074129;28;20033;-85
2021/08/17 00:08:26;;;;;;;0.70;0.35;;;14.00;87.90;;;;;;5073156;28;20013;-85
2021/08/17 00:10:52;;;;;;;1.38;1.10;;;14.00;88.20;;;;;;5056084;28;20021;-86
2021/08/17 00:13:18;;;;;;;0.73;0.52;;;13.90;88.10;;;;;;5074133;28;20493;-87
2021/08/17 00:15:43;;;;;;;0.63;0.40;;;13.90;88.20;;;;;;5073871;28;20029;-88
2021/08/17 00:18:09;;;;;;;2.33;0.80;;;13.90;88.20;;;;;;5074359;28;20541;-90
2021/08/17 00:20:34;;;;;;;0.60;0.45;;;13.80;88.20;;;;;;5074195;28;20062;-89
2021/08/17 00:23:00;;;;;;;1.65;0.60;;;13.80;88.30;;;;;;5073548;28;20114;-83
2021/08/17 00:25:25;;;;;;;0.43;0.43;;;13.80;88.40;;;;;;5056025;28;20470;-87
2021/08/17 00:27:51;;;;;;;1.13;0.70;;;13.80;88.30;;;;;;5056355;28;20035;-85
2021/08/17 00:30:16;;;;;;;0.60;0.50;;;13.70;88.20;;;;;;5056147;28;20182;-86
2021/08/17 00:32:42;;;;;;;1.35;0.55;;;13.80;88.30;;;;;;5073913;28;20479;-85
2021/08/17 00:35:08;;;;;;;1.05;0.50;;;13.80;88.30;;;;;;5073506;28;20029;-84
2021/08/17 00:37:34;;;;;;;1.08;0.57;;;13.80;88.20;;;;;;5072866;28;20024;-85
2021/08/17 00:39:59;;;;;;;0.95;0.82;;;13.70;88.30;;;;;;5073599;28;20021;-88
2021/08/17 00:42:25;;;;;;;1.55;0.47;;;13.70;88.20;;;;;;5073269;28;20024;-85
2021/08/17 00:44:51;;;;;;;0.43;0.40;;;13.70;88.20;;;;;;5073357;28;20029;-85
2021/08/17 00:47:17;;;;;;;0.30;0.30;;;13.70;88.20;;;;;;5055632;28;20031;-84
2021/08/17 00:49:44;;;;;;;1.35;0.50;;;13.70;88.30;;;;;;5055631;28;20013;-87
2021/08/17 00:52:10;;;;;;;0.60;0.60;;;13.60;88.20;;;;;;5075444;28;20028;-85
2021/08/17 00:54:44;;;;;;;0.73;0.63;;;13.60;88.20;;;;;;5077212;28;20028;-84
2021/08/17 00:57:12;;;;;;;0.40;0.40;;;13.60;88.20;;;;;;5059223;28;20119;-86
2021/08/17 00:59:38;;;;;;;0.60;0.45;;;13.60;88.20;;;;;;5077009;28;20031;-86
2021/08/17 01:02:04;;;;;;;0.50;0.50;;;13.60;88.20;;;;;;5077102;28;20032;-87
2021/08/17 01:04:30;;;;;;;0.90;0.60;;;13.60;88.20;;;;;;5076786;28;20024;-84
2021/08/17 01:06:56;;;;;;;1.02;0.60;;;13.70;88.20;;;;;;5076268;28;20035;-85
2021/08/17 01:09:21;;;;;;;0.47;0.45;;;13.60;88.20;;;;;;5059004;28;20583;-84
2021/08/17 01:11:48;;;;;;;1.08;0.65;;;13.70;88.20;;;;;;5076798;28;20051;-89
2021/08/17 01:14:15;;;;;;;0.30;0.30;;;13.60;88.20;;;;;;5076689;28;20025;-85
2021/08/17 01:16:42;;;;;;;0.47;0.43;;;13.60;88.30;;;;;;5076584;28;20029;-87
2021/08/17 01:19:09;;;;;;;0.57;0.50;;;13.60;88.40;;;;;;5076759;28;20088;-84
2021/08/17 01:21:35;;;;;;;1.55;0.63;;;13.60;88.20;;;;;;5076186;28;20017;-87
2021/08/17 01:24:01;;;;;;;0.70;0.55;;;13.60;88.20;;;;;;5058774;28;20040;-87
2021/08/17 01:26:27;;;;;;;0.95;0.65;;;13.60;88.20;;;;;;5076753;28;20032;-87
2021/08/17 01:28:52;;;;;;;2.38;0.60;;;13.60;88.20;;;;;;5076724;28;20024;-86
2021/08/17 01:31:18;;;;;;;0.65;0.45;;;13.50;88.20;;;;;;5076668;28;20038;-85
2021/08/17 01:33:43;;;;;;;0.47;0.47;;;13.50;88.20;;;;;;5076690;28;20028;-87
2021/08/17 01:36:09;;;;;;;0.75;0.75;;;13.60;88.20;;;;;;5058391;28;20074;-88
2021/08/17 01:38:45;;;;;;;0.40;0.40;;;13.60;88.20;;;;;;5076290;28;20461;-85
2021/08/17 01:41:10;;;;;;;1.00;0.50;;;13.60;88.20;;;;;;5076506;28;20070;-85
2021/08/17 01:43:36;;;;;;;1.33;0.80;;;13.50;88.20;;;;;;5076308;28;20024;-85
2021/08/17 01:46:03;;;;;;;0.30;0.30;;;13.50;88.30;;;;;;5075968;28;20039;-84
2021/08/17 01:48:30;;;;;;;0.50;0.50;;;13.50;88.20;;;;;;5076233;28;20096;-87
2021/08/17 01:50:56;;;;;;;0.75;0.50;;;13.50;88.20;;;;;;5075748;28;20028;-88
2021/08/17 01:53:23;;;;;;;0.32;0.32;;;13.40;88.20;;;;;;5059059;28;20103;-86
2021/08/17 01:55:51;;;;;;;0.50;0.50;;;13.40;88.20;;;;;;5058198;28;20032;-87
2021/08/17 01:58:16;;;;;;;0.30;0.28;;;13.40;88.20;;;;;;5077027;28;20092;-85
2021/08/17 02:00:44;;;;;;;0.40;0.40;;;13.40;88.20;;;;;;5077487;28;20481;-86
2021/08/17 02:03:10;;;;;;;0.68;0.57;;;13.40;88.30;;;;;;5075091;28;20028;-87
2021/08/17 02:05:38;;;;;;;1.65;0.50;;;13.40;88.30;;;;;;5075675;28;20440;-85
2021/08/17 02:08:04;;;;;;;0.80;0.50;;;13.40;88.30;;;;;;5075823;28;20493;-87
2021/08/17 02:10:30;;;;;;;1.05;0.50;;;13.30;88.20;;;;;;5076116;28;20064;-87
2021/08/17 02:12:56;;;;;;;0.55;0.47;;;13.30;88.30;;;;;;5076192;28;20535;-88
2021/08/17 02:15:22;;;;;;;0.57;0.57;;;13.40;88.30;;;;;;5075774;28;20027;-86
2021/08/17 02:17:48;;;;;;;1.70;0.80;;;13.30;88.30;;;;;;5058190;28;20473;-89
2021/08/17 02:20:13;;;;;;;0.70;0.35;;;13.30;88.30;;;;;;5075492;28;20024;-87
2021/08/17 02:22:39;;;;;;;2.55;0.75;;;13.30;88.40;;;;;;5075888;28;20020;-87
2021/08/17 02:25:05;;;;;;;0.60;0.57;;;13.30;88.40;;;;;;5076037;28;20485;-87
2021/08/17 02:27:35;;;;;;;0.50;0.40;;;13.30;88.40;;;;;;5076107;28;20108;-87
2021/08/17 02:30:05;;;;;;;0.55;0.50;;;13.20;88.40;;;;;;5075965;28;20032;-88
2021/08/17 02:32:32;;;;;;;1.02;0.75;;;13.20;88.40;;;;;;5058398;28;20059;-87
2021/08/17 02:34:57;;;;;;;2.45;1.25;;;13.20;88.50;;;;;;5075554;28;20029;-88
2021/08/17 02:37:23;;;;;;;1.08;0.70;;;13.20;88.40;;;;;;5075816;28;20461;-88
2021/08/17 02:39:48;;;;;;;1.90;0.90;;;13.20;88.50;;;;;;5075483;28;20064;-87
2021/08/17 02:42:14;;;;;;;1.38;0.90;;;13.20;88.50;;;;;;5075619;28;20475;-88
2021/08/17 02:44:40;;;;;;;0.40;0.40;;;13.20;88.50;;;;;;5075202;28;20055;-87
2021/08/17 02:47:08;;;;;;;3.83;1.23;;;13.20;88.40;;;;;;5075746;28;20060;-87
2021/08/17 02:49:34;;;;;;;1.55;0.60;;;13.20;88.40;;;;;;5074901;28;20020;-88
2021/08/17 02:52:04;;;;;;;1.58;0.85;;;13.10;88.40;;;;;;5075148;28;20028;-87
2021/08/17 02:54:30;;;;;;;0.47;0.47;;;13.20;88.50;;;;;;5075200;28;20027;-87
2021/08/17 02:56:56;;;;;;;1.08;0.55;;;13.20;88.50;;;;;;5075474;28;20108;-86
2021/08/17 02:59:21;;;;;;;0.20;0.20;;;13.20;88.60;;;;;;5074973;28;20457;-88
2021/08/17 03:01:47;;;;;;;1.00;0.90;;;13.20;88.60;;;;;;5075164;28;20103;-87
2021/08/17 03:04:12;;;;;;;0.50;0.50;;;13.20;88.60;;;;;;5074710;28;20025;-88
2021/08/17 03:06:38;;;;;;;0.90;0.60;;;13.20;88.50;;;;;;5057392;28;20081;-88
2021/08/17 03:09:03;;;;;;;0.40;0.30;;;13.20;88.50;;;;;;5075130;28;20099;-88
2021/08/17 03:11:29;;;;;;;0.43;0.43;;;13.10;88.40;;;;;;5074846;28;20033;-88
2021/08/17 03:13:57;;;;;;;0.52;0.40;;;13.10;88.40;;;;;;5074289;28;20477;-87
2021/08/17 03:16:23;;;;;;;1.20;0.98;;;13.20;88.60;;;;;;5074324;28;20017;-87
2021/08/17 03:18:48;;;;;;;1.27;0.70;;;13.20;88.50;;;;;;5074766;28;20109;-86
2021/08/17 03:21:14;;;;;;;0.30;0.30;;;13.20;88.50;;;;;;5056816;28;20528;-88
2021/08/17 03:23:40;;;;;;;1.08;0.68;;;13.20;88.40;;;;;;5074236;28;20052;-88
2021/08/17 03:26:06;;;;;;;0.50;0.50;;;13.20;89.00;;;;;;5056737;28;20444;-86
2021/08/17 03:28:31;;;;;;;0.95;0.40;;;13.20;88.30;;;;;;5075245;28;20028;-89
2021/08/17 03:30:57;;;;;;;1.40;0.50;;;13.20;88.40;;;;;;5056319;28;20020;-86
2021/08/17 03:33:22;;;;;;;1.33;0.77;;;13.30;88.50;;;;;;5074172;28;20036;-87
2021/08/17 03:35:48;;;;;;;0.70;0.70;;;13.30;88.50;;;;;;5074595;28;20048;-87
2021/08/17 03:38:14;;;;;;;0.60;0.60;;;13.30;88.50;;;;;;5074339;28;20060;-85
2021/08/17 03:40:40;;;;;;;0.40;0.40;;;13.30;88.40;;;;;;5074148;28;20029;-85
2021/08/17 03:43:10;;;;;;;0.45;0.40;;;13.30;88.50;;;;;;5074138;28;20048;-85
2021/08/17 03:45:36;;;;;;;0.60;0.57;;;13.30;88.50;;;;;;5073678;28;20058;-86
2021/08/17 03:48:02;;;;;;;1.17;0.70;;;13.30;88.50;;;;;;5074051;28;20099;-87
2021/08/17 03:50:28;;;;;;;0.50;0.50;;;13.30;88.60;;;;;;5073994;28;20056;-86
2021/08/17 03:52:53;;;;;;;0.32;0.32;;;13.30;88.50;;;;;;5074259;28;20487;-87
2021/08/17 03:55:20;;;;;;;3.10;1.05;;;13.30;88.60;;;;;;5074171;28;20427;-85
2021/08/17 03:57:46;;;;;;;0.63;0.60;;;13.40;88.50;;;;;;5073894;28;20089;-87
2021/08/17 04:00:15;;;;;;;0.63;0.32;;;13.40;88.40;;;;;;5073871;28;20036;-87
2021/08/17 04:02:41;;;;;;;0.35;0.35;;;13.50;88.50;;;;;;5073935;28;20021;-86
2021/08/17 04:05:08;;;;;;;0.22;0.22;;;13.50;88.50;;;;;;5073778;28;20048;-86
2021/08/17 04:07:34;;;;;;;1.95;0.60;;;13.50;88.50;;;;;;5074253;28;20122;-87
2021/08/17 04:09:59;;;;;;;0.60;0.60;;;13.50;88.40;;;;;;5074205;28;20473;-86
2021/08/17 04:12:25;;;;;;;0.20;0.20;;;13.60;88.40;;;;;;5073722;28;20086;-87
2021/08/17 04:14:51;;;;;;;0.40;0.40;;;13.60;88.40;;;;;;5073673;28;20028;-91
2021/08/17 04:17:16;;;;;;;1.08;0.60;;;13.60;88.40;;;;;;5074196;28;20074;-87
2021/08/17 04:19:43;;;;;;;0.75;0.55;;;13.60;89.00;;;;;;5056272;28;20024;-88
2021/08/17 04:22:09;;;;;;;0.50;0.50;;;13.70;88.40;;;;;;5055837;28;20362;-86
2021/08/17 04:24:35;;;;;;;0.55;0.32;;;13.70;88.40;;;;;;5073605;28;20044;-87
2021/08/17 04:27:01;;;;;;;0.65;0.57;;;13.70;88.40;;;;;;5076256;28;20033;-86
2021/08/17 04:29:27;;;;;;;1.05;0.43;;;13.80;88.50;;;;;;5077566;28;20025;-86
2021/08/17 04:31:53;;;;;;;0.20;0.20;;;13.80;88.40;;;;;;5078017;28;20021;-87
2021/08/17 04:34:18;;;;;;;0.60;0.30;;;13.80;88.40;;;;;;5077782;28;20021;-88
2021/08/17 04:36:44;;;;;;;1.38;0.60;;;13.80;88.50;;;;;;5078327;28;20027;-86
2021/08/17 04:39:09;;;;;;;0.80;0.70;;;13.80;88.40;;;;;;5078689;28;20035;-87
2021/08/17 04:41:34;;;;;;;1.45;0.65;;;13.80;88.40;;;;;;5078033;28;20108;-88
2021/08/17 04:44:00;;;;;;;3.05;0.90;;;13.90;88.60;;;;;;5059792;28;20586;-87
2021/08/17 04:46:25;;;;;;;1.13;0.65;;;13.80;88.50;;;;;;5060090;28;20031;-88
2021/08/17 04:48:51;;;;;;;1.08;0.50;;;13.90;88.60;;;;;;5077664;28;20435;-87
2021/08/17 04:51:18;;;;;;;0.68;0.50;;;13.90;88.50;;;;;;5077811;28;20112;-87
2021/08/17 04:53:44;;;;;;;0.90;0.70;;;13.90;88.60;;;;;;5077220;28;20024;-88
2021/08/17 04:56:09;;;;;;;1.88;1.25;;;13.90;88.60;;;;;;5059695;28;20032;-90
2021/08/17 04:58:37;;;;;;;1.15;0.80;;;14.00;88.60;;;;;;5077325;28;20126;-87
2021/08/17 05:01:03;;;;;;;0.68;0.57;;;14.00;88.60;;;;;;5077383;28;20059;-88
2021/08/17 05:03:29;;;;;;;0.57;0.57;;;14.10;88.60;;;;;;5077391;28;20408;-88
2021/08/17 05:05:55;;;;;;;1.00;0.60;;;14.10;88.60;;;;;;5077143;28;20028;-89
2021/08/17 05:08:20;;;;;;;0.82;0.55;;;14.20;88.70;;;;;;5077116;28;20025;-88
2021/08/17 05:10:46;;;;;;;0.70;0.60;;;14.20;88.60;;;;;;5077174;28;20024;-88
2021/08/17 05:13:11;;;;;;;0.57;0.57;;;14.20;88.70;;;;;;5076697;28;20031;-89
2021/08/17 05:15:37;;;;;;;0.60;0.60;;;14.30;88.70;;;;;;5077183;28;20032;-89
2021/08/17 05:18:03;;;;;;;2.03;0.77;;;14.30;88.70;;;;;;5077204;28;20021;-90
2021/08/17 05:20:29;;;;;;;1.45;1.00;;;14.30;88.60;;;;;;5059288;28;20028;-88
2021/08/17 05:22:55;;;;;;;1.92;1.08;;;14.30;88.60;;;;;;5058866;28;20048;-87
2021/08/17 05:25:20;;;;;;;0.95;0.93;;;14.30;88.60;;;;;;5077025;28;20074;-88
2021/08/17 05:27:46;;;;;;;1.25;0.98;;;14.30;88.70;;;;;;5076519;28;20026;-86
2021/08/17 05:30:13;;;;;;;1.38;1.00;;;14.30;88.80;;;;;;5076740;28;20024;-90
2021/08/17 05:32:38;;;;;;;2.30;1.10;;;14.30;88.90;;;;;;5076734;28;20021;-88
2021/08/17 05:35:05;;;;;;;1.35;0.88;;;14.40;89.00;;;;;;5076637;28;20024;-87
2021/08/17 05:37:30;;;;;;;1.90;1.20;;;14.30;88.90;;;;;;5058347;28;20031;-87
2021/08/17 05:39:56;;;;;;;1.95;0.85;;;14.40;88.90;;;;;;5076597;28;20021;-87
2021/08/17 05:42:23;;;;;;;1.63;1.15;;;14.50;88.90;;;;;;5076263;28;20036;-87
2021/08/17 05:44:48;;;;;;;1.50;1.27;;;14.50;88.90;;;;;;5058805;28;20025;-88
2021/08/17 05:47:14;;;;;;;1.15;0.80;;;14.60;88.80;;;;;;5076216;28;20027;-87
2021/08/17 05:49:39;;;;;;;1.85;1.17;;;14.60;88.80;;;;;;5076775;28;20031;-88
2021/08/17 05:52:07;;;;;;;1.55;1.10;;;14.60;88.80;;;;;;5076565;28;20099;-87
2021/08/17 05:54:33;;;;;;;1.70;1.25;;;14.60;88.80;;;;;;5076167;28;20483;-88
2021/08/17 05:56:58;;;;;;;1.30;1.20;;;14.70;88.80;;;;;;5075891;28;20100;-88
2021/08/17 05:59:32;;;;;;;1.92;1.45;;;14.80;88.80;;;;;;5076063;28;20031;-87
2021/08/17 06:02:00;;;;;;;2.05;1.48;;;14.80;88.70;;;;;;5076364;28;20111;-88
2021/08/17 06:04:26;;;;;;;1.13;1.00;;;14.90;88.80;;;;;;5076358;28;20082;-87
2021/08/17 06:06:52;;;;;;;2.53;1.40;;;14.90;88.80;;;;;;5075911;28;20032;-86
2021/08/17 06:09:20;;;;;;;2.83;1.60;;;14.90;88.70;;;;;;5075928;28;20100;-87
2021/08/17 06:11:47;;;;;;;2.20;1.57;;;15.00;88.70;;;;;;5075537;28;20099;-87
2021/08/17 06:14:13;;;;;;;2.17;1.50;;;15.00;88.60;;;;;;5075831;28;20099;-87
2021/08/17 06:16:39;;;;;;;2.97;1.67;;;15.10;88.80;;;;;;5076153;28;20120;-87
2021/08/17 06:19:07;;;;;;;2.13;1.23;;;15.20;88.80;;;;;;5075706;28;20025;-87
2021/08/17 06:21:34;;;;;;;1.42;1.33;;;15.20;88.80;;;;;;5076108;28;20035;-87
2021/08/17 06:24:00;;;;;;;2.72;1.77;;;15.30;88.80;;;;;;5075411;28;20509;-87
2021/08/17 06:26:26;;;;;;;2.15;1.75;;;15.40;88.60;;;;;;5075220;28;20032;-85
2021/08/17 06:28:51;;;;;;;1.75;1.40;;;15.60;88.50;;;;;;5075516;28;20028;-87
2021/08/17 06:31:22;;;;;;;2.15;1.40;;;15.70;88.40;;;;;;5076326;28;20058;-86
2021/08/17 06:33:48;;;;;;;3.22;2.05;;;15.80;88.30;;;;;;5075474;28;20016;-88
2021/08/17 06:36:13;;;;;;;2.63;1.60;;;15.90;88.10;;;;;;5075700;28;20487;-86
2021/08/17 06:38:39;;;;;;;2.80;1.98;;;16.00;88.10;;;;;;5075596;28;20013;-88
2021/08/17 06:41:04;;;;;;;4.15;1.95;;;16.00;88.20;;;;;;5074936;28;20528;-88
2021/08/17 06:43:30;;;;;;;4.13;2.30;;;16.10;88.30;;;;;;5075402;28;20028;-88
2021/08/17 06:45:56;;;;;;;2.97;1.80;;;16.20;88.30;;;;;;5057607;28;20033;-87
2021/08/17 06:48:21;;;;;;;3.90;2.25;;;16.30;88.20;;;;;;5075147;28;20028;-86
2021/08/17 06:50:47;;;;;;;4.68;2.55;;;16.30;88.10;;;;;;5075913;28;20028;-89
2021/08/17 06:53:13;;;;;;;4.47;2.60;;;16.30;88.20;;;;;;5075681;28;20066;-85
2021/08/17 06:55:39;;;;;;;4.80;3.25;;;16.30;88.20;;;;;;5056995;28;20025;-87
2021/08/17 06:58:08;;;;;;;5.18;2.60;;;16.30;88.30;;;;;;5075101;28;20024;-86
2021/08/17 07:00:33;;;;;;;5.28;2.60;;;16.40;88.40;;;;;;5074681;28;20457;-85
2021/08/17 07:02:59;;;;;;;4.72;2.17;;;16.40;88.30;;;;;;5074864;28;20039;-87
2021/08/17 07:05:24;;;;;;;3.58;1.92;;;16.40;88.50;;;;;;5074649;28;20036;-86
2021/08/17 07:07:50;;;;;;;3.40;1.75;;;16.40;88.50;;;;;;5074813;28;20362;-87
2021/08/17 07:10:15;;;;;;;3.47;1.85;;;16.50;88.60;;;;;;5074458;28;20084;-85
2021/08/17 07:12:41;;;;;;;3.80;2.33;;;16.50;88.60;;;;;;5074529;28;20016;-86
2021/08/17 07:15:07;;;;;;;4.30;2.50;;;16.50;88.50;;;;;;5056729;28;20477;-87
2021/08/17 07:17:32;;;;;;;4.55;2.90;;;16.50;88.60;;;;;;5074533;28;20024;-88
2021/08/17 07:19:58;;;;;;;4.45;2.35;;;16.40;88.80;;;;;;5074524;28;20374;-86
2021/08/17 07:22:23;;;;;;;4.57;2.67;;;16.40;88.90;;;;;;5074601;28;20078;-88
2021/08/17 07:24:49;;;;;;;4.13;2.75;;;16.40;89.00;;;;;;5073644;28;20037;-87
2021/08/17 07:27:14;;;;;;;4.53;3.03;;;16.50;89.00;;;;;;5074457;28;20490;-87
2021/08/17 07:29:40;;;;;;;5.43;2.67;;;16.60;88.90;;;;;;5056613;28;20107;-88
2021/08/17 07:32:06;;;;;;;5.72;2.50;;;16.60;88.70;;;;;;5074489;28;20371;-88
2021/08/17 07:34:31;;;;;;;4.13;2.35;;;16.60;88.60;;;;;;5074497;28;20024;-87
2021/08/17 07:36:57;;;;;;;4.25;2.28;;;16.70;88.60;;;;;;5074749;28;20021;-89
2021/08/17 07:39:22;;;;;;;5.05;2.30;;;16.80;88.50;;;;;;5073970;28;20013;-86
2021/08/17 07:41:50;;;;;;;4.50;2.20;;;16.90;88.40;;;;;;5074288;28;20485;-88
2021/08/17 07:44:16;;;;;;;4.05;2.28;;;17.00;88.30;;;;;;5074351;28;20052;-87
2021/08/17 07:46:41;;;;;;;3.72;2.33;;;17.00;88.30;;;;;;5074095;28;20487;-87
2021/08/17 07:49:07;;;;;;;2.53;1.80;;;17.10;88.30;;;;;;5074222;28;20021;-89
2021/08/17 07:51:32;;;;;;;3.00;2.15;;;17.10;88.20;;;;;;5074601;28;20028;-89
2021/08/17 07:53:58;;;;;;;3.50;1.83;;;17.20;88.30;;;;;;5074040;28;20094;-89
2021/08/17 07:56:24;;;;;;;4.53;2.47;;;17.30;88.30;;;;;;5074041;28;20047;-88
2021/08/17 07:58:49;;;;;;;4.13;2.95;;;17.30;88.10;;;;;;5074225;28;20102;-86
2021/08/17 08:01:15;;;;;;;5.20;3.20;;;17.30;88.10;;;;;;5074332;28;20033;-83
2021/08/17 08:03:40;;;;;;;3.80;2.08;;;17.30;88.20;;;;;;5073839;28;20033;-86
2021/08/17 08:06:07;;;;;;;4.88;2.22;;;17.40;88.10;;;;;;5074081;28;20028;-87
2021/08/17 08:08:33;;;;;;;2.60;1.80;;;17.50;88.00;;;;;;5073580;28;20013;-88
2021/08/17 08:10:58;;;;;;;3.92;2.20;;;17.50;87.90;;;;;;5073953;28;20082;-87
2021/08/17 08:13:24;;;;;;;1.90;1.60;;;17.50;88.30;;;;;;5074203;28;20100;-88
2021/08/17 08:15:49;;;;;;;3.95;2.10;;;17.40;88.50;;;;;;5073758;28;20036;-88
2021/08/17 08:18:15;;;;;;;2.63;1.85;;;17.30;88.70;;;;;;5073746;28;20025;-87
2021/08/17 08:20:41;;;;;;;3.45;1.98;;;17.30;89.00;;;;;;5073896;28;20044;-85
2021/08/17 08:23:08;;;;;;;4.38;2.05;;;17.30;89.00;;;;;;5073766;28;20591;-86
2021/08/17 08:25:34;;;;;;;3.28;2.20;;;17.40;88.80;;;;;;5074241;28;20028;-87
2021/08/17 08:27:59;;;;;;;3.40;1.70;;;17.40;88.80;;;;;;5077063;28;20103;-85
2021/08/17 08:30:25;;;;;;;3.63;2.05;;;17.40;88.80;;;;;;5075375;28;20051;-86
2021/08/17 08:32:50;;;;;;;3.67;2.13;;;17.40;88.70;;;;;;5073736;28;20103;-84
2021/08/17 08:35:16;;;;;;;2.88;1.67;;;17.40;88.60;;;;;;5073786;28;20099;-85
2021/08/17 08:37:42;;;;;;;2.80;1.75;;;17.40;88.60;;;;;;5073115;28;20103;-86
2021/08/17 08:40:09;;;;;;;4.63;2.40;;;17.50;88.70;;;;;;5073620;28;20064;-88
2021/08/17 08:42:34;;;;;;;4.10;2.30;;;17.50;88.50;;;;;;5073730;28;20017;-85
2021/08/17 08:45:00;;;;;;;4.47;2.15;;;17.50;88.50;;;;;;5073478;28;20112;-85
2021/08/17 08:47:26;;;;;;;2.83;2.05;;;17.50;88.60;;;;;;5073443;28;20078;-87
2021/08/17 08:49:52;;;;;;;3.88;2.05;;;17.50;88.70;;;;;;5073407;28;20477;-89
2021/08/17 08:52:19;;;;;;;3.72;2.47;;;17.40;88.80;;;;;;5073658;28;20021;-88
2021/08/17 08:54:45;;;;;;;3.42;2.33;;;17.40;88.80;;;;;;5056342;28;20025;-88
2021/08/17 08:57:10;;;;;;;3.55;2.08;;;17.40;88.80;;;;;;5074133;28;20017;-87
2021/08/17 08:59:36;;;;;;;4.68;2.42;;;17.30;89.00;;;;;;5073979;28;20024;-87
2021/08/17 09:02:10;;;;;;;3.40;2.00;;;17.30;89.10;;;;;;5073490;28;20021;-86
2021/08/17 09:04:37;;;;;;;5.97;3.20;;;17.30;89.00;;;;;;5072813;28;20112;-85
2021/08/17 09:07:03;;;;;;;3.55;2.58;;;17.20;89.10;;;;;;5073411;28;20052;-83
2021/08/17 09:09:29;;;;;;;2.75;2.45;;;17.10;89.20;;;;;;5073039;28;20020;-84
2021/08/17 09:11:57;;;;;;;2.97;2.17;;;17.10;89.40;;;;;;5056181;28;20141;-85
2021/08/17 09:14:33;;;;;;;4.75;2.67;;;17.10;89.40;;;;;;5076752;28;20070;-87
2021/08/17 09:17:04;;;;;;;3.50;2.28;;;17.10;89.20;;;;;;5076926;28;20050;-87
2021/08/17 09:19:42;;;;;;;3.42;2.17;;;17.10;89.10;;;;;;5076232;28;20028;-84
2021/08/17 09:22:26;;;;;;;2.97;1.65;;;17.10;89.20;;;;;;5076846;28;20032;-89
2021/08/17 09:24:54;;;;;;;3.10;2.05;;;17.10;89.10;;;;;;5076462;28;20052;-89
2021/08/17 09:27:32;;;;;;;2.65;1.80;;;17.20;89.10;;;;;;5076800;28;20025;-90
2021/08/17 09:30:13;;;;;;;2.75;1.85;;;17.20;89.00;;;;;;5076727;28;20084;-87
2021/08/17 09:32:53;;;;;;;3.10;1.88;;;17.30;88.90;;;;;;5076993;28;20025;-88
2021/08/17 09:35:21;;;;;;;3.58;2.25;;;17.40;88.70;;;;;;5076086;28;20090;-84
2021/08/17 09:38:07;;;;;;;3.97;2.45;;;17.50;88.50;;;;;;5076426;28;20066;-85
2021/08/17 09:40:34;;;;;;;4.68;2.70;;;17.50;88.40;;;;;;5076158;28;20020;-85
2021/08/17 09:43:20;;;;;;;4.60;2.50;;;17.50;88.40;;;;;;5075834;28;20028;-85
2021/08/17 09:45:46;;;;;;;3.53;2.28;;;17.70;88.20;;;;;;5076104;28;20025;-83
2021/08/17 09:48:13;;;;;;;3.63;2.25;;;17.70;88.10;;;;;;5075328;28;20020;-84
2021/08/17 09:50:41;;;;;;;4.03;2.50;;;17.80;87.90;;;;;;5075863;28;20112;-83
2021/08/17 09:53:18;;;;;;;4.50;2.03;;;17.80;87.90;;;;;;5075591;28;20103;-84
2021/08/17 09:55:48;;;;;;;3.22;2.10;;;17.90;87.90;;;;;;5076100;28;20013;-85
2021/08/17 09:58:33;;;;;;;3.60;2.35;;;18.00;87.80;;;;;;5075585;28;20100;-86
2021/08/17 10:01:00;;;;;;;3.40;1.88;;;18.10;87.80;;;;;;5057734;28;20035;-84
2021/08/17 10:03:27;;;;;;;3.25;1.80;;;18.10;87.70;;;;;;5075076;28;20300;-83
2021/08/17 10:05:54;;;;;;;1.45;1.30;;;18.10;87.60;;;;;;5075388;28;20437;-83
2021/08/17 10:08:22;;;;;;;2.60;1.70;;;18.10;87.70;;;;;;5075311;28;20102;-82
2021/08/17 10:10:49;;;;;;;3.90;2.35;;;18.00;87.80;;;;;;5075276;28;20025;-83
2021/08/17 10:13:20;;;;;;;2.03;1.50;;;18.00;87.70;;;;;;5075286;28;20013;-82
2021/08/17 10:15:47;;;;;;;3.08;1.92;;;18.00;87.80;;;;;;5075057;28;20027;-84
2021/08/17 10:18:16;;;;;;;2.28;1.90;;;17.90;87.90;;;;;;5056385;28;20380;-82
2021/08/17 10:20:44;;;;;;;2.97;1.80;;;17.90;88.00;;;;;;5057597;28;20020;-82
2021/08/17 10:23:16;;;;;;;2.33;1.65;;;17.90;88.00;;;;;;5075781;28;20025;-87
2021/08/17 10:25:44;;;;;;;1.73;1.30;;;18.00;88.00;;;;;;5074598;28;20623;-83
2021/08/17 10:28:30;;;;;;;2.67;1.77;;;18.00;87.90;;;;;;5074878;28;20381;-84
2021/08/17 10:30:58;;;;;;;2.38;1.83;;;18.00;87.70;;;;;;5075019;28;20157;-86
2021/08/17 10:33:40;;;;;;;4.30;3.45;;;17.90;87.80;;;;;;5074466;28;20036;-86
2021/08/17 10:36:11;;;;;;;2.63;1.60;;;18.00;88.50;;;;;;5075190;28;20060;-85
2021/08/17 10:38:43;;;;;;;2.60;1.63;;;18.00;87.80;;;;;;5074796;28;20028;-83
2021/08/17 10:41:10;;;;;;;2.65;1.50;;;18.00;87.60;;;;;;5074660;28;20024;-84
2021/08/17 10:43:35;;;;;;;3.10;1.98;;;18.00;87.70;;;;;;5074750;28;20021;-84
2021/08/17 10:46:04;;;;;;;2.83;1.70;;;18.00;88.30;;;;;;5073958;28;20032;-84
2021/08/17 10:48:50;;;;;;;2.60;1.70;;;18.00;87.40;;;;;;5074818;28;20017;-88
2021/08/17 10:51:18;;;;;;;2.38;1.58;;;18.00;87.40;;;;;;5075343;28;20106;-87
2021/08/17 10:53:48;;;;;;;1.92;1.70;;;18.00;87.50;;;;;;5074825;28;20021;-84
2021/08/17 10:56:18;;;;;;;2.35;1.60;;;18.00;87.30;;;;;;5074644;28;20424;-87
2021/08/17 10:58:46;;;;;;;1.20;1.10;;;18.10;87.30;;;;;;5057206;28;20047;-86
2021/08/17 11:01:12;;;;;;;2.30;1.30;;;18.10;87.20;;;;;;5074890;28;20542;-87
2021/08/17 11:03:47;;;;;;;2.90;1.92;;;18.10;87.20;;;;;;5057050;28;20052;-84
2021/08/17 11:06:34;;;;;;;3.97;1.90;;;18.20;86.80;;;;;;5075359;28;20115;-85
2021/08/17 11:09:00;;;;;;;2.00;1.30;;;18.20;86.90;;;;;;5074361;28;20021;-84
2021/08/17 11:11:26;;;;;;;2.75;1.30;;;18.20;87.30;;;;;;5074388;28;20118;-86
2021/08/17 11:14:22;;;;;;;1.25;1.00;;;18.20;86.90;;;;;;5074810;28;20481;-87
2021/08/17 11:16:59;;;;;;;1.77;1.38;;;18.20;86.90;;;;;;5069067;28;20033;-84
2021/08/17 11:19:30;;;;;;;1.83;1.27;;;18.20;86.90;;;;;;5074642;28;20017;-88
2021/08/17 11:21:58;;;;;;;1.48;1.13;;;18.10;87.00;;;;;;5074871;28;20378;-83
2021/08/17 11:24:31;;;;;;;1.65;1.33;;;17.90;87.00;;;;;;5074157;28;20043;-89
2021/08/17 11:26:56;;;;;;;1.77;1.30;;;17.80;87.30;;;;;;5074417;28;20118;-88
2021/08/17 11:29:31;;;;;;;1.40;1.30;;;17.70;87.50;;;;;;5074248;28;20017;-88
2021/08/17 11:31:58;;;;;;;1.13;1.05;;;17.60;87.50;;;;;;5056652;28;20024;-89
2021/08/17 11:34:27;;;;;;;1.50;1.40;;;17.40;87.90;;;;;;5056364;28;20416;-86
2021/08/17 11:37:11;;;;;;;2.30;1.40;;;17.10;88.30;;;;;;5074119;28;20051;-85
2021/08/17 11:39:42;;;;;;;1.83;1.55;;;17.00;88.90;;;;;;5073712;28;20027;-85
2021/08/17 11:42:14;;;;;;;1.65;1.20;;;16.80;89.00;;;;;;5073817;28;20095;-86
2021/08/17 11:44:40;;;;;;;4.25;1.77;;;16.60;89.40;;;;;;5073100;28;20358;-89
2021/08/17 11:47:11;;;;;;;1.95;1.50;;;16.50;89.50;;;;;;5074272;28;20024;-87
2021/08/17 11:49:38;;;;;;;2.20;1.38;;;16.40;89.50;;;;;;5073736;28;20437;-85
2021/08/17 11:52:13;;;;;;;1.42;1.25;;;16.20;89.70;;;;;;5074096;28;20052;-88
2021/08/17 11:54:49;;;;;;;1.70;1.30;;;16.00;90.00;;;;;;5074207;28;20473;-86
2021/08/17 11:57:21;;;;;;;1.15;0.90;;;15.80;90.20;;;;;;5074051;28;20104;-85
2021/08/17 11:59:48;;;;;;;1.17;1.08;;;15.70;90.30;;;;;;5073276;28;20071;-84
2021/08/17 12:02:21;;;;;;;2.60;1.40;;;15.60;90.40;;;;;;5055567;28;20055;-84
2021/08/17 12:04:59;;;;;;;0.93;0.90;;;15.50;90.40;;;;;;5073509;28;20125;-86
2021/08/17 12:07:29;;;;;;;1.92;1.55;;;15.40;90.40;;;;;;5074122;28;20031;-85
2021/08/17 12:10:01;;;;;;;2.05;1.25;;;15.40;90.50;;;;;;5073614;28;20024;-84
2021/08/17 12:12:55;;;;;;;1.58;1.17;;;15.30;90.50;;;;;;5074409;28;20016;-84
2021/08/17 12:15:30;;;;;;;0.80;0.80;;;15.30;90.50;;;;;;5073704;28;20096;-84
2021/08/17 12:18:07;;;;;;;1.85;0.90;;;15.10;90.60;;;;;;5074294;28;20028;-90
2021/08/17 12:20:35;;;;;;;1.35;1.23;;;15.00;90.60;;;;;;5075949;28;20024;-84
2021/08/17 12:23:16;;;;;;;1.30;1.20;;;14.90;90.60;;;;;;5073530;28;20040;-83
2021/08/17 12:25:42;;;;;;;1.15;0.90;;;14.90;91.10;;;;;;5073096;28;20080;-83
2021/08/17 12:28:08;;;;;;;1.15;1.02;;;14.70;92.10;;;;;;5072658;28;20056;-83
2021/08/17 12:30:34;;;;;;;0.75;0.75;;;14.60;92.90;;;;;;5073318;28;20477;-85
2021/08/17 12:33:01;;;;;;;1.55;1.20;;;14.70;93.50;;;;;;5055092;28;20059;-84
2021/08/17 12:35:29;;;;;;;2.63;1.67;;;14.70;93.70;;;;;;5073491;28;20078;-85
2021/08/17 12:37:56;;;;;;;1.67;1.52;;;14.70;93.90;;;;;;5073500;28;20013;-84
2021/08/17 12:40:22;;;;;;;2.15;1.10;;;14.70;94.10;;;;;;5073098;28;20389;-83
2021/08/17 12:42:48;;;;;;;2.33;1.25;;;14.70;94.40;;;;;;5072734;28;20024;-85
2021/08/17 12:45:26;;;;;;;1.52;1.30;;;14.70;94.50;;;;;;5073652;28;20020;-89
2021/08/17 12:47:58;;;;;;;2.03;1.42;;;14.60;94.60;;;;;;5058398;28;20115;-87
2021/08/17 12:50:24;;;;;;;2.72;1.45;;;14.70;94.80;;;;;;5077478;28;20089;-87